createdAt,value
2018-11-23T00:00:44.821Z,35.10
2018-11-23T00:03:10.975Z,35.00
2018-11-23T00:05:37.127Z,35.10
2018-11-23T00:08:03.289Z,35.00
2018-11-23T00:10:29.445Z,35.10
2018-11-23T00:12:59.132Z,35.00
2018-11-23T00:15:25.279Z,35.10
2018-11-23T00:17:51.455Z,35.00
2018-11-23T00:20:17.607Z,35.00
2018-11-23T00:22:43.774Z,35.10
2018-11-23T01:47:05.769Z,35.00
2018-11-23T01:49:31.940Z,38.20
2018-11-23T01:51:58.090Z,37.80
2018-11-23T01:54:24.244Z,37.10
2018-11-23T01:56:50.396Z,36.50
2018-11-23T01:59:16.539Z,36.30
2018-11-23T02:01:42.686Z,35.80
2018-11-23T02:04:08.835Z,35.50
2018-11-23T02:06:34.991Z,35.30
2018-11-23T02:09:01.902Z,35.00
2018-11-23T02:11:28.039Z,35.00
2018-11-23T02:13:54.187Z,35.00
2018-11-23T02:16:20.327Z,35.00
2018-11-23T02:18:46.471Z,34.90
2018-11-23T02:21:12.623Z,34.80
2018-11-23T02:23:38.783Z,34.80
2018-11-23T02:26:04.918Z,34.90
2018-11-23T02:28:31.080Z,34.70
2018-11-23T02:30:57.233Z,34.80
2018-11-23T02:33:24.138Z,34.70
2018-11-23T02:35:50.292Z,34.60
2018-11-23T02:38:18.216Z,34.60
2018-11-23T02:40:44.362Z,34.80
2018-11-23T02:43:10.499Z,34.80
2018-11-23T02:45:36.652Z,34.60
2018-11-23T02:48:02.795Z,34.60
2018-11-23T02:50:28.968Z,35.40
2018-11-23T02:52:55.126Z,34.70
2018-11-23T02:55:21.268Z,34.50
2018-11-23T02:57:47.422Z,34.60
2018-11-23T03:00:13.559Z,34.40
2018-11-23T03:02:39.703Z,34.50
2018-11-23T03:05:05.851Z,34.50
2018-11-23T03:07:32.005Z,34.50
2018-11-23T03:09:58.157Z,34.40
2018-11-23T03:12:24.307Z,34.40
2018-11-23T03:14:51.212Z,34.40
2018-11-23T03:17:17.360Z,34.30
2018-11-23T03:19:43.507Z,34.40
2018-11-23T03:22:09.655Z,34.50
2018-11-23T03:24:35.805Z,34.40
2018-11-23T03:27:01.968Z,34.40
2018-11-23T03:29:28.115Z,34.50
2018-11-23T03:31:54.257Z,34.30
2018-11-23T03:34:20.420Z,34.60
2018-11-23T03:36:46.581Z,34.50
2018-11-23T03:39:12.733Z,34.50
2018-11-23T03:41:38.887Z,34.40
2018-11-23T03:44:05.044Z,34.30
2018-11-23T03:46:31.213Z,34.30
2018-11-23T03:48:57.360Z,34.50
2018-11-23T03:51:23.525Z,34.20
2018-11-23T03:53:49.673Z,34.30
2018-11-23T03:56:15.831Z,34.40
2018-11-23T03:58:41.977Z,34.20
2018-11-23T04:01:08.125Z,34.40
2018-11-23T04:03:34.296Z,34.30
2018-11-23T04:06:00.448Z,34.50
2018-11-23T04:08:27.362Z,34.40
2018-11-23T04:10:53.512Z,34.30
2018-11-23T04:13:19.668Z,34.40
2018-11-23T04:15:45.815Z,34.60
2018-11-23T04:18:11.970Z,34.50
2018-11-23T04:20:38.116Z,34.30
2018-11-23T04:23:04.263Z,34.40
2018-11-23T04:25:30.417Z,34.20
2018-11-23T04:27:56.562Z,34.20
2018-11-23T04:30:22.730Z,34.30
2018-11-23T04:32:48.885Z,34.20
2018-11-23T04:35:15.032Z,34.30
2018-11-23T04:37:41.172Z,34.40
2018-11-23T04:40:07.318Z,34.40
2018-11-23T04:42:33.468Z,34.40
2018-11-23T04:44:59.618Z,34.30
2018-11-23T04:47:25.777Z,34.30
2018-11-23T04:49:51.911Z,34.40
2018-11-23T04:52:18.059Z,34.10
2018-11-23T04:54:44.208Z,34.40
2018-11-23T04:57:10.353Z,34.40
2018-11-23T04:59:37.264Z,34.30
2018-11-23T05:02:03.424Z,34.30
2018-11-23T05:04:29.570Z,34.20
2018-11-23T05:06:55.721Z,34.40
2018-11-23T05:09:21.873Z,34.30
2018-11-23T05:11:48.024Z,34.40
2018-11-23T05:14:14.174Z,34.20
2018-11-23T05:16:40.316Z,34.20
2018-11-23T05:19:06.478Z,34.30
2018-11-23T05:21:32.641Z,34.40
2018-11-23T05:23:58.803Z,34.40
2018-11-23T05:26:24.948Z,34.10
2018-11-23T05:28:51.097Z,34.00
2018-11-23T05:31:17.240Z,34.20
2018-11-23T05:33:43.384Z,34.00
2018-11-23T05:36:09.562Z,34.20
2018-11-23T05:38:35.712Z,34.10
2018-11-23T05:41:01.850Z,34.20
2018-11-23T05:43:27.987Z,34.30
2018-11-23T05:45:54.137Z,34.30
2018-11-23T05:48:22.947Z,34.20
2018-11-23T05:50:46.480Z,34.00
2018-11-23T05:53:13.400Z,34.20
2018-11-23T05:55:39.547Z,34.10
2018-11-23T05:58:05.691Z,34.00
2018-11-23T06:00:31.856Z,34.20
2018-11-23T06:02:58.007Z,34.20
2018-11-23T06:05:24.148Z,34.10
2018-11-23T06:07:50.296Z,34.00
2018-11-23T06:10:16.452Z,34.10
2018-11-23T06:12:42.771Z,34.10
2018-11-23T06:15:08.912Z,34.20
2018-11-23T06:17:35.065Z,34.30
2018-11-23T06:20:01.233Z,34.30
2018-11-23T06:22:27.397Z,34.10
2018-11-23T06:24:53.548Z,34.20
2018-11-23T06:27:19.698Z,34.30
2018-11-23T06:29:45.844Z,34.10
2018-11-23T06:32:11.988Z,34.20
2018-11-23T06:34:38.132Z,34.10
2018-11-23T06:37:05.050Z,34.20
2018-11-23T06:39:31.204Z,34.10
2018-11-23T06:41:57.352Z,34.30
2018-11-23T06:44:23.497Z,34.30
2018-11-23T06:46:49.647Z,34.20
2018-11-23T06:49:15.803Z,34.20
2018-11-23T06:51:41.940Z,34.20
2018-11-23T06:54:08.561Z,34.00
2018-11-23T06:56:34.289Z,34.00
2018-11-23T06:59:00.445Z,34.20
2018-11-23T07:01:27.480Z,34.20
2018-11-23T07:03:52.764Z,34.20
2018-11-23T07:06:18.908Z,34.20
2018-11-23T07:08:45.058Z,34.30
2018-11-23T07:11:11.208Z,34.10
2018-11-23T07:13:37.376Z,34.20
2018-11-23T07:16:03.532Z,34.20
2018-11-23T07:18:29.679Z,34.10
2018-11-23T07:20:55.820Z,34.10
2018-11-23T07:23:21.967Z,34.00
2018-11-23T07:25:48.127Z,34.00
2018-11-23T07:28:15.723Z,33.90
2018-11-23T07:30:40.472Z,33.90
2018-11-23T07:33:06.613Z,33.90
2018-11-23T07:35:32.776Z,33.90
2018-11-23T07:37:58.941Z,34.60
2018-11-23T07:40:25.095Z,33.80
2018-11-23T07:42:51.240Z,33.90
2018-11-23T07:45:17.385Z,34.00
2018-11-23T07:47:43.543Z,34.00
2018-11-23T07:50:09.696Z,34.00
2018-11-23T07:52:35.853Z,34.00
2018-11-23T07:55:02.001Z,34.00
2018-11-23T07:57:29.592Z,34.00
2018-11-23T07:59:55.740Z,34.10
2018-11-23T08:02:21.887Z,34.00
2018-11-23T08:04:48.032Z,34.00
2018-11-23T08:07:14.943Z,34.00
2018-11-23T08:09:41.092Z,34.20
2018-11-23T08:12:07.250Z,34.10
2018-11-23T08:14:33.414Z,34.10
2018-11-23T08:16:59.575Z,34.20
2018-11-23T08:19:26.497Z,34.30
2018-11-23T08:21:52.657Z,34.30
2018-11-23T08:24:18.808Z,34.10
2018-11-23T08:26:44.959Z,34.10
2018-11-23T08:29:11.112Z,34.10
2018-11-23T08:31:38.016Z,34.20
2018-11-23T08:34:04.178Z,34.10
2018-11-23T08:36:30.326Z,34.20
2018-11-23T08:39:04.614Z,34.20
2018-11-23T08:41:25.720Z,34.20
2018-11-23T08:43:51.869Z,34.20
2018-11-23T08:46:18.019Z,34.20
2018-11-23T08:48:44.176Z,34.20
2018-11-23T08:51:10.325Z,34.20
2018-11-23T08:53:36.473Z,34.20
2018-11-23T08:56:02.632Z,34.30
2018-11-23T08:58:28.774Z,34.30
2018-11-23T09:00:54.947Z,34.30
2018-11-23T09:03:21.103Z,34.30
2018-11-23T09:05:47.245Z,34.30
2018-11-23T09:08:13.399Z,34.30
2018-11-23T09:10:41.393Z,34.40
2018-11-23T09:13:07.549Z,34.40
2018-11-23T09:15:33.702Z,34.50
2018-11-23T09:17:59.856Z,34.50
2018-11-23T09:20:26.040Z,34.50
2018-11-23T09:22:52.209Z,34.50
2018-11-23T09:25:18.360Z,34.60
2018-11-23T09:27:44.512Z,34.60
2018-11-23T09:30:10.666Z,34.60
2018-11-23T09:32:36.808Z,34.60
2018-11-23T09:35:02.970Z,34.60
2018-11-23T09:37:29.150Z,34.60
2018-11-23T09:39:59.665Z,34.60
2018-11-23T09:42:25.821Z,34.70
2018-11-23T09:44:51.972Z,34.70
2018-11-23T09:47:18.124Z,34.70
2018-11-23T09:49:45.095Z,34.90
2018-11-23T09:52:11.236Z,34.80
2018-11-23T09:54:37.381Z,34.90
2018-11-23T09:57:03.533Z,34.80
2018-11-23T09:59:29.716Z,34.90
2018-11-23T10:01:55.873Z,34.90
2018-11-23T10:04:22.009Z,34.90
2018-11-23T10:06:48.163Z,34.70
2018-11-23T10:09:14.345Z,35.00
2018-11-23T10:11:40.492Z,35.10
2018-11-23T10:14:06.659Z,35.10
2018-11-23T10:16:32.807Z,35.10
2018-11-23T10:18:58.951Z,35.00
2018-11-23T10:21:25.096Z,35.10
2018-11-23T10:23:51.261Z,35.10
2018-11-23T10:26:17.407Z,35.20
2018-11-23T10:28:43.551Z,35.20
2018-11-23T10:31:09.697Z,35.20
2018-11-23T10:33:35.863Z,35.20
2018-11-23T10:36:02.014Z,35.20
2018-11-23T10:38:28.168Z,35.20
2018-11-23T10:40:54.321Z,35.30
2018-11-23T10:43:20.464Z,35.30
2018-11-23T10:45:46.613Z,35.40
2018-11-23T10:48:12.771Z,35.30
2018-11-23T10:50:38.915Z,35.30
2018-11-23T10:53:05.077Z,35.40
2018-11-23T10:55:31.225Z,35.40
2018-11-23T10:57:57.373Z,35.40
2018-11-23T11:00:23.535Z,35.50
2018-11-23T11:02:49.685Z,35.50
2018-11-23T11:05:15.827Z,35.50
2018-11-23T11:07:41.975Z,35.50
2018-11-23T11:10:08.892Z,35.60
2018-11-23T11:12:35.046Z,35.60
2018-11-23T11:15:01.213Z,35.50
2018-11-23T11:17:27.531Z,36.20
2018-11-23T11:19:53.684Z,35.60
2018-11-23T11:22:19.851Z,35.60
2018-11-23T11:24:45.997Z,35.60
2018-11-23T11:27:12.908Z,35.70
2018-11-23T11:29:39.048Z,35.70
2018-11-23T11:32:05.199Z,35.70
2018-11-23T11:34:31.344Z,35.70
2018-11-23T11:36:57.489Z,35.80
2018-11-23T11:39:23.653Z,35.80
2018-11-23T11:41:49.809Z,35.80
2018-11-23T11:44:17.469Z,35.90
2018-11-23T11:46:43.639Z,35.90
2018-11-23T11:49:09.790Z,35.90
2018-11-23T11:51:35.959Z,35.90
2018-11-23T11:54:02.135Z,35.90
2018-11-23T11:56:28.288Z,36.00
2018-11-23T11:58:54.446Z,36.10
2018-11-23T12:01:20.600Z,36.10
2018-11-23T12:03:46.740Z,36.20
2018-11-23T12:06:12.925Z,36.30
2018-11-23T12:08:39.075Z,36.20
2018-11-23T12:11:05.216Z,36.20
2018-11-23T12:13:31.361Z,36.30
2018-11-23T12:15:58.286Z,36.20
2018-11-23T12:18:24.431Z,36.30
2018-11-23T12:20:50.587Z,36.30
2018-11-23T12:23:16.750Z,36.40
2018-11-23T12:25:42.901Z,36.40
2018-11-23T12:28:09.052Z,36.30
2018-11-23T12:30:35.204Z,37.10
2018-11-23T12:33:01.381Z,36.60
2018-11-23T12:35:27.548Z,36.70
2018-11-23T12:37:53.699Z,36.70
2018-11-23T12:40:19.853Z,36.70
2018-11-23T12:42:46.773Z,37.10
2018-11-23T12:45:12.932Z,36.70
2018-11-23T12:47:39.090Z,37.10
2018-11-23T12:50:05.240Z,36.80
2018-11-23T12:52:31.384Z,36.80
2018-11-23T12:54:57.524Z,36.90
2018-11-23T12:57:23.708Z,36.90
2018-11-23T12:59:49.862Z,36.90
2018-11-23T13:02:16.068Z,37.00
2018-11-23T13:04:42.220Z,37.00
2018-11-23T13:07:08.367Z,37.00
2018-11-23T13:09:34.522Z,37.10
2018-11-23T13:12:00.676Z,37.10
2018-11-23T13:14:26.823Z,37.10
2018-11-23T13:16:53.402Z,37.20
2018-11-23T13:19:19.161Z,37.20
2018-11-23T13:21:45.308Z,37.30
2018-11-23T13:24:11.451Z,37.30
2018-11-23T13:26:37.608Z,37.30
2018-11-23T13:29:15.528Z,37.90
2018-11-23T13:31:29.969Z,37.40
2018-11-23T13:33:56.125Z,37.50
2018-11-23T13:36:22.282Z,37.40
2018-11-23T13:38:48.427Z,37.50
2018-11-23T13:41:14.587Z,37.50
2018-11-23T13:43:40.746Z,37.50
2018-11-23T13:46:06.899Z,38.20
2018-11-23T13:48:35.629Z,37.60
2018-11-23T13:51:01.771Z,37.50
2018-11-23T13:53:27.928Z,37.70
2018-11-23T13:55:54.077Z,38.10
2018-11-23T13:58:20.230Z,37.70
2018-11-23T14:00:46.394Z,37.70
2018-11-23T14:03:12.570Z,37.80
2018-11-23T14:05:38.714Z,37.80
2018-11-23T14:08:04.868Z,37.90
2018-11-23T14:10:31.040Z,37.90
2018-11-23T14:12:57.175Z,37.80
2018-11-23T14:15:23.327Z,37.80
2018-11-23T14:17:49.481Z,37.90
2018-11-23T14:20:15.710Z,37.90
2018-11-23T14:22:41.925Z,38.00
2018-11-23T14:25:08.073Z,38.00
2018-11-23T14:27:34.232Z,38.00
2018-11-23T14:30:00.391Z,38.00
2018-11-23T14:32:26.532Z,38.00
2018-11-23T14:34:52.686Z,38.10
2018-11-23T14:37:19.784Z,38.80
2018-11-23T14:39:45.939Z,38.10
2018-11-23T14:42:12.091Z,38.10
2018-11-23T14:44:38.249Z,38.10
2018-11-23T14:47:05.173Z,38.20
2018-11-23T14:49:31.320Z,38.10
2018-11-23T14:51:57.472Z,38.10
2018-11-23T14:54:23.630Z,38.10
2018-11-23T14:56:49.780Z,38.10
2018-11-23T14:59:15.933Z,38.10
2018-11-23T15:01:42.087Z,38.10
2018-11-23T15:04:08.237Z,38.10
2018-11-23T15:06:34.391Z,38.10
2018-11-23T15:09:00.544Z,38.10
2018-11-23T15:11:26.693Z,38.20
2018-11-23T15:13:52.855Z,38.10
2018-11-23T15:16:19.005Z,38.10
2018-11-23T15:18:45.156Z,38.10
2018-11-23T15:21:11.300Z,38.10
2018-11-23T15:23:37.444Z,38.10
2018-11-23T15:26:03.590Z,38.10
2018-11-23T15:28:29.735Z,38.10
2018-11-23T15:30:55.884Z,38.10
2018-11-23T15:33:22.080Z,38.10
2018-11-23T15:35:48.216Z,38.10
2018-11-23T15:38:14.361Z,38.10
2018-11-23T15:40:40.505Z,38.10
2018-11-23T15:43:06.657Z,38.10
2018-11-23T15:45:32.802Z,38.10
2018-11-23T15:47:58.962Z,38.10
2018-11-23T15:50:25.114Z,38.10
2018-11-23T15:52:51.266Z,38.20
2018-11-23T15:55:17.426Z,38.20
2018-11-23T15:57:43.570Z,38.10
2018-11-23T16:00:09.730Z,38.10
2018-11-23T16:02:36.681Z,38.80
2018-11-23T16:05:02.072Z,38.10
2018-11-23T16:07:28.217Z,38.10
2018-11-23T16:09:54.360Z,38.20
2018-11-23T16:12:20.499Z,38.20
2018-11-23T16:14:46.643Z,38.20
2018-11-23T16:17:12.792Z,38.20
2018-11-23T16:19:38.932Z,38.20
2018-11-23T16:22:05.076Z,38.20
2018-11-23T16:24:31.212Z,38.20
2018-11-23T16:26:57.545Z,38.30
2018-11-23T16:29:23.696Z,38.20
2018-11-23T16:31:49.850Z,38.20
2018-11-23T16:34:15.992Z,38.20
2018-11-23T16:36:42.139Z,38.20
2018-11-23T16:39:08.285Z,38.20
2018-11-23T16:41:34.429Z,38.30
2018-11-23T16:44:00.637Z,38.20
2018-11-23T16:46:26.792Z,38.30
2018-11-23T16:48:52.958Z,38.30
2018-11-23T16:51:19.873Z,38.20
2018-11-23T16:53:46.024Z,38.20
2018-11-23T16:56:12.184Z,38.20
2018-11-23T16:58:38.334Z,38.30
2018-11-23T17:01:04.494Z,38.20
2018-11-23T17:03:30.641Z,38.20
2018-11-23T17:05:56.806Z,38.20
2018-11-23T17:08:22.948Z,38.30
2018-11-23T17:10:49.097Z,38.30
2018-11-23T17:13:15.292Z,38.30
2018-11-23T17:15:41.440Z,38.20
2018-11-23T17:18:07.599Z,38.30
2018-11-23T17:20:33.748Z,38.30
2018-11-23T17:22:59.900Z,38.30
2018-11-23T17:25:26.043Z,38.40
2018-11-23T17:27:52.187Z,38.30
2018-11-23T17:30:19.102Z,38.30
2018-11-23T17:32:45.246Z,38.30
2018-11-23T17:35:11.887Z,38.30
2018-11-23T17:37:38.035Z,38.30
2018-11-23T17:40:05.705Z,38.30
2018-11-23T17:42:31.852Z,38.40
2018-11-23T17:44:58.000Z,38.30
2018-11-23T17:47:24.159Z,38.40
2018-11-23T17:49:50.301Z,38.40
2018-11-23T17:52:16.465Z,38.40
2018-11-23T17:54:42.612Z,38.30
2018-11-23T17:57:08.759Z,38.30
2018-11-23T17:59:34.900Z,38.30
2018-11-23T18:02:01.053Z,38.30
2018-11-23T18:04:27.198Z,38.40
2018-11-23T18:06:53.333Z,38.40
2018-11-23T18:09:19.486Z,38.40
2018-11-23T18:11:45.634Z,38.40
2018-11-23T18:14:11.786Z,38.40
2018-11-23T18:16:37.942Z,38.40
2018-11-23T18:19:04.851Z,38.40
2018-11-23T18:21:30.994Z,38.40
2018-11-23T18:23:57.144Z,38.40
2018-11-23T18:26:23.295Z,38.40
2018-11-23T18:28:49.448Z,38.40
2018-11-23T18:31:15.594Z,38.40
2018-11-23T18:33:41.736Z,38.50
2018-11-23T18:36:07.904Z,38.50
2018-11-23T18:38:34.046Z,38.50
2018-11-23T18:41:00.202Z,38.50
2018-11-23T18:43:27.118Z,38.40
2018-11-23T18:45:53.250Z,38.40
2018-11-23T18:48:19.409Z,38.50
2018-11-23T18:50:45.557Z,38.40
2018-11-23T18:53:11.705Z,38.40
2018-11-23T18:55:41.738Z,38.50
2018-11-23T18:58:07.891Z,38.50
2018-11-23T19:00:34.804Z,38.60
2018-11-23T19:03:00.949Z,38.60
2018-11-23T19:05:27.117Z,39.20
2018-11-23T19:07:53.300Z,38.60
2018-11-23T19:10:19.444Z,38.50
2018-11-23T19:12:45.596Z,38.60
2018-11-23T19:15:11.752Z,38.60
2018-11-23T19:17:37.904Z,38.50
2018-11-23T19:20:04.088Z,38.60
2018-11-23T19:22:30.232Z,38.60
2018-11-23T19:24:56.382Z,38.60
2018-11-23T19:27:23.300Z,38.70
2018-11-23T19:29:49.447Z,38.50
2018-11-23T19:32:15.949Z,38.70
2018-11-23T19:34:42.101Z,38.60
2018-11-23T19:37:09.021Z,38.60
2018-11-23T19:39:35.171Z,38.60
2018-11-23T19:42:01.319Z,38.60
2018-11-23T19:44:27.482Z,38.60
2018-11-23T19:46:53.627Z,38.60
2018-11-23T19:49:19.774Z,38.60
2018-11-23T19:51:45.923Z,38.60
2018-11-23T19:54:12.065Z,38.60
2018-11-23T19:56:38.234Z,38.60
2018-11-23T19:59:04.388Z,38.70
2018-11-23T20:01:30.536Z,38.60
2018-11-23T20:03:56.686Z,38.60
2018-11-23T20:06:22.827Z,38.60
2018-11-23T20:08:48.975Z,38.60
2018-11-23T20:11:15.133Z,38.60
2018-11-23T20:13:41.288Z,38.60
2018-11-23T20:16:07.452Z,38.50
2018-11-23T20:18:33.604Z,38.60
2018-11-23T20:20:59.752Z,38.60
2018-11-23T20:23:25.907Z,38.70
2018-11-23T20:25:52.070Z,38.60
2018-11-23T20:28:18.211Z,38.60
2018-11-23T20:30:44.363Z,38.70
2018-11-23T20:33:10.509Z,39.30
2018-11-23T20:35:36.661Z,38.60
2018-11-23T20:38:02.820Z,38.60
2018-11-23T20:40:28.971Z,38.50
2018-11-23T20:42:55.123Z,38.60
2018-11-23T20:45:21.264Z,38.50
2018-11-23T20:47:47.422Z,38.50
2018-11-23T20:50:13.582Z,38.50
2018-11-23T20:52:39.742Z,38.50
2018-11-23T20:55:05.895Z,38.50
2018-11-23T20:57:32.049Z,38.60
2018-11-23T20:59:58.209Z,38.70
2018-11-23T21:02:24.375Z,38.60
2018-11-23T21:04:50.524Z,38.60
2018-11-23T21:07:16.681Z,38.60
2018-11-23T21:09:42.828Z,38.50
2018-11-23T21:12:08.983Z,38.50
2018-11-23T21:14:35.131Z,38.50
2018-11-23T21:17:01.282Z,38.60
2018-11-23T21:19:27.437Z,38.60
2018-11-23T21:21:53.595Z,38.50
2018-11-23T21:24:20.512Z,38.50
2018-11-23T21:26:46.656Z,38.50
2018-11-23T21:29:12.806Z,38.50
2018-11-23T21:31:38.952Z,38.50
2018-11-23T21:34:05.099Z,38.50
2018-11-23T21:36:31.243Z,38.40
2018-11-23T21:38:57.405Z,38.50
2018-11-23T21:41:23.737Z,38.50
2018-11-23T21:43:49.752Z,38.50
2018-11-23T21:46:15.908Z,38.40
2018-11-23T21:48:42.059Z,38.40
2018-11-23T21:51:08.208Z,39.20
2018-11-23T21:53:34.361Z,38.50
2018-11-23T21:56:00.509Z,38.50
2018-11-23T21:58:26.675Z,38.60
2018-11-23T22:00:53.214Z,38.50
2018-11-23T22:03:19.028Z,38.50
2018-11-23T22:05:45.181Z,38.50
2018-11-23T22:08:11.328Z,39.10
2018-11-23T22:10:37.485Z,38.50
2018-11-23T22:13:03.633Z,38.50
2018-11-23T22:15:29.795Z,38.40
2018-11-23T22:17:55.947Z,38.40
2018-11-23T22:20:22.101Z,38.40
2018-11-23T22:22:48.251Z,38.40
2018-11-23T22:25:14.396Z,38.30
2018-11-23T22:27:40.555Z,38.30
2018-11-23T22:30:06.718Z,38.30
2018-11-23T22:32:33.635Z,38.30
2018-11-23T22:34:59.824Z,38.20
2018-11-23T22:37:25.971Z,38.30
2018-11-23T22:39:52.129Z,38.30
2018-11-23T22:42:18.283Z,38.40
2018-11-23T22:44:44.441Z,38.40
2018-11-23T22:47:10.599Z,38.40
2018-11-23T22:49:36.756Z,38.30
2018-11-23T22:52:02.901Z,38.20
2018-11-23T22:54:29.863Z,38.40
2018-11-23T22:56:56.251Z,38.30
2018-11-23T22:59:22.396Z,38.30
2018-11-23T23:01:48.551Z,38.30
2018-11-23T23:04:18.227Z,38.90
2018-11-23T23:06:48.120Z,38.30
2018-11-23T23:09:14.275Z,38.20
2018-11-23T23:11:40.428Z,38.30
2018-11-23T23:14:06.588Z,38.30
2018-11-23T23:16:32.748Z,38.20
2018-11-23T23:18:58.915Z,38.20
2018-11-23T23:21:25.067Z,38.20
2018-11-23T23:23:51.217Z,38.20
2018-11-23T23:26:17.360Z,38.20
2018-11-23T23:28:43.508Z,38.20
2018-11-23T23:31:09.657Z,38.20
2018-11-23T23:33:35.810Z,38.20
2018-11-23T23:36:01.959Z,38.10
2018-11-23T23:38:28.115Z,38.10
2018-11-23T23:40:54.269Z,38.90
2018-11-23T23:43:20.433Z,38.10
2018-11-23T23:45:46.585Z,38.00
2018-11-23T23:48:12.742Z,38.00
2018-11-23T23:50:38.897Z,38.00
2018-11-23T23:53:05.044Z,38.00
2018-11-23T23:55:31.193Z,38.10
2018-11-23T23:57:58.110Z,38.00
